Latest Weather Observations for Kalgoorlie-Boulder

IDW60801

Issued at 10:04 am WST Thursday 23 March 2017 (issued every 30 minutes, with the page automatically refreshed every 10 minutes)

About weather observations | Map of weather stations | Latest weather observations for WA | Other Formats
Station Details ID: 012038 Name: KALGOORLIE-BOULDER AIRPORT Lat: -30.78 Lon: 121.45 Height: 365.3 m
Data from the previous 72 hours. | See also: Recent months at Kalgoorlie-Boulder
Date/Time
WST
Temp
°C
App
Temp
°C
Dew
Point
°C
Rel
Hum
%
Delta-T
°C
Wind Press
QNH
hPa
Press
MSL
hPa
Rain since
9am
mm
Dir  Spd
km/h
Gust
km/h
Spd
kts
Gust
kts
23/10:00am 18.9 19.5 17.7 93 0.7 N 11 17 6 9 1013.4 - 0.0
23/09:30am 18.8 19.4 17.8 94 0.6 N 11 15 6 8 1013.1 - 0.0
23/09:00am 18.6 19.4 17.4 93 0.7 N 9 13 5 7 1013.2 1011.5 8.6
23/08:30am 18.4 19.5 17.2 93 0.7 N 7 11 4 6 1013.0 - 8.6
23/08:00am 18.3 19.5 17.3 94 0.6 NNE 7 11 4 6 1012.6 - 8.6
23/07:30am 18.2 18.6 17.2 94 0.6 NNE 11 17 6 9 1012.8 - 8.6
23/07:00am 18.1 18.0 16.9 93 0.7 NNE 13 19 7 10 1012.8 - 8.6
23/06:30am 18.0 17.5 16.9 93 0.7 NNE 15 20 8 11 1012.9 - 8.6
23/06:00am 18.1 18.1 17.1 94 0.6 NNE 13 19 7 10 1012.9 1011.2 8.6
23/05:30am 18.1 18.5 17.3 95 0.5 N 11 17 6 9 1013.0 - 8.6
23/05:00am 17.9 18.7 17.3 96 0.4 N 9 13 5 7 1012.9 - 8.6
23/04:30am 17.8 18.1 17.0 95 0.5 N 11 19 6 10 1012.6 - 8.6
23/04:21am 17.8 17.7 17.0 95 0.5 NNE 13 20 7 11 1012.1 - 8.6
23/04:10am 17.7 16.4 16.9 95 0.5 NE 19 24 10 13 1011.4 - 8.6
23/04:00am 17.8 17.3 17.0 95 0.5 NNE 15 24 8 13 1011.9 - 8.6
23/03:51am 17.8 17.3 17.0 95 0.5 N 15 28 8 15 1012.2 - 8.6
23/03:30am 17.7 17.3 17.1 96 0.4 NNE 15 24 8 13 1011.9 - 8.4
23/03:00am 17.8 17.3 17.0 95 0.5 NNE 15 20 8 11 1012.2 1010.4 8.4
23/02:30am 17.9 17.5 17.1 95 0.5 NNE 15 22 8 12 1012.6 - 8.4
23/02:00am 17.9 18.2 17.1 95 0.5 NNE 11 15 6 8 1013.6 - 8.0
23/01:30am 18.1 18.0 16.9 93 0.7 NE 13 17 7 9 1013.3 - 7.0
23/01:00am 18.3 18.6 17.0 92 0.8 NNE 11 19 6 10 1013.7 - 6.4
23/12:30am 18.4 19.2 17.4 94 0.6 NNE 9 11 5 6 1013.8 - 6.2
23/12:11am 18.4 18.9 17.4 94 0.6 N 11 15 6 8 1013.7 - 5.4
23/12:00am 18.6 20.0 17.4 93 0.7 N 6 9 3 5 1013.6 1011.9 4.0
 
Date/Time
WST
Temp
°C
App
Temp
°C
Dew
Point
°C
Rel
Hum
%
Delta-T
°C
Wind Press
QNH
hPa
Press
MSL
hPa
Rain since
9am
mm
Dir  Spd
km/h
Gust
km/h
Spd
kts
Gust
kts
22/11:30pm 18.7 20.0 17.5 93 0.7 ENE 7 11 4 6 1013.2 - 3.4
22/11:00pm 18.9 20.9 17.9 94 0.6 NNW 4 9 2 5 1013.3 - 3.4
22/10:30pm 19.0 20.7 18.0 94 0.6 WSW 6 9 3 5 1013.8 - 2.4
22/10:00pm 18.9 20.2 17.6 92 0.8 SE 7 9 4 5 1012.7 - 2.4
22/09:30pm 19.1 20.4 17.6 91 0.9 SSE 7 9 4 5 1012.5 - 2.4
22/09:00pm 19.3 20.1 17.3 88 1.2 E 9 11 5 6 1012.8 1011.1 2.4
22/08:30pm 19.6 20.4 17.2 86 1.5 E 9 11 5 6 1013.1 - 2.2
22/08:00pm 20.4 21.3 16.6 79 2.3 ENE 7 13 4 7 1013.0 - 1.0
22/07:30pm 20.7 21.0 17.1 80 2.2 ENE 11 15 6 8 1012.5 - 1.0
22/07:00pm 21.2 21.6 16.2 73 3.1 NE 9 15 5 8 1012.5 - 1.0
22/06:30pm 21.4 21.3 16.1 72 3.2 NE 11 17 6 9 1011.8 - 1.0
22/06:00pm 21.7 20.9 16.2 71 3.4 NE 15 20 8 11 1011.6 1009.9 1.0
22/05:30pm 22.3 22.1 16.8 71 3.4 NE 13 19 7 10 1011.3 - 1.0
22/05:00pm 22.5 23.3 17.2 72 3.3 ENE 9 15 5 8 1011.4 - 1.0
22/04:30pm 22.4 23.6 17.3 73 3.2 NNE 7 11 4 6 1011.6 - 1.0
22/04:00pm 22.0 21.9 16.9 73 3.2 NE 13 17 7 9 1011.0 - 1.0
22/03:30pm 21.9 21.7 16.8 73 3.2 NE 13 19 7 10 1011.1 - 1.0
22/03:00pm 21.8 22.2 17.2 75 2.9 NNE 11 17 6 9 1011.2 1009.5 1.0
22/02:30pm 21.5 22.0 17.5 78 2.5 NNE 11 17 6 9 1011.3 - 1.0
22/02:00pm 20.7 19.6 17.3 81 2.1 NE 19 22 10 12 1010.7 - 0.8
22/01:30pm 19.7 20.0 17.1 85 1.6 NNE 11 15 6 8 1012.1 - 0.8
22/01:00pm 18.9 18.6 16.5 86 1.5 NNE 13 17 7 9 1012.2 - 0.8
22/12:30pm 19.4 18.4 15.7 79 2.2 NNE 15 20 8 11 1012.5 - 0.6
22/12:00pm 19.7 18.1 15.1 75 2.7 NNE 17 24 9 13 1012.6 1010.8 0.4
22/11:30am 19.6 18.3 15.7 78 2.4 NE 17 30 9 16 1012.9 - 0.4
22/11:00am 18.3 16.5 15.4 83 1.7 NE 19 28 10 15 1013.0 - 0.4
22/10:30am 17.1 16.0 15.3 89 1.1 NE 15 22 8 12 1013.3 - 0.4
22/10:00am 16.4 14.5 14.2 87 1.3 NE 17 24 9 13 1013.8 - 0.4
22/09:30am 16.4 14.8 13.9 85 1.4 NNE 15 24 8 13 1014.2 - 0.0
22/09:00am 16.6 14.2 13.9 84 1.6 NNE 19 26 10 14 1014.2 1012.5 3.4
22/08:30am 16.5 14.9 14.0 85 1.4 NNE 15 30 8 16 1013.7 - 3.0
22/08:15am 16.5 14.0 14.2 86 1.3 NE 20 32 11 17 1013.3 - 3.0
22/08:00am 16.4 14.1 14.2 87 1.3 NE 19 28 10 15 1013.1 - 3.0
22/07:30am 16.3 14.1 14.5 89 1.0 NE 19 28 10 15 1012.8 - 3.0
22/07:00am 16.1 13.4 14.5 90 0.9 NE 22 30 12 16 1012.6 - 3.0
22/06:30am 15.8 13.5 14.2 90 0.9 NE 19 32 10 17 1012.3 - 3.0
22/06:00am 15.5 13.1 13.9 90 0.9 NE 19 28 10 15 1012.2 1010.4 3.0
22/05:56am 15.6 13.1 14.0 90 0.9 NE 20 28 11 15 1012.2 - 3.0
22/05:30am 15.5 12.9 13.9 90 0.9 NE 20 33 11 18 1012.1 - 3.0
22/05:00am 15.4 12.8 13.8 90 0.9 NE 20 32 11 17 1011.9 - 3.0
22/04:30am 15.3 12.3 13.7 90 0.9 NE 22 35 12 19 1012.2 - 3.0
22/04:00am 16.0 13.4 13.3 84 1.5 NE 19 30 10 16 1012.8 - 3.0
22/03:30am 16.1 13.3 13.2 83 1.6 NE 20 35 11 19 1012.4 - 3.0
22/03:00am 16.2 12.7 13.3 83 1.7 NE 24 35 13 19 1012.2 1010.4 3.0
22/02:30am 16.3 12.7 13.2 82 1.8 NE 24 39 13 21 1012.5 - 3.0
22/02:09am 16.5 12.1 13.0 80 2.0 ENE 28 46 15 25 1012.6 - 3.0
22/02:00am 16.6 12.2 12.9 79 2.1 NE 28 43 15 23 1012.4 - 3.0
22/01:30am 16.9 12.6 13.2 79 2.1 ENE 28 41 15 22 1012.2 - 3.0
22/01:00am 16.8 12.6 13.5 81 1.9 ENE 28 39 15 21 1013.0 - 3.0
22/12:30am 17.7 12.9 12.8 73 2.8 ENE 30 44 16 24 1013.5 - 2.8
22/12:00am 17.8 13.5 13.1 74 2.7 ENE 28 41 15 22 1013.0 1011.3 2.8
 
Date/Time
WST
Temp
°C
App
Temp
°C
Dew
Point
°C
Rel
Hum
%
Delta-T
°C
Wind Press
QNH
hPa
Press
MSL
hPa
Rain since
9am
mm
Dir  Spd
km/h
Gust
km/h
Spd
kts
Gust
kts
21/11:30pm 17.8 13.7 13.9 78 2.3 E 28 41 15 22 1012.7 - 2.8
21/11:00pm 18.0 15.4 14.9 82 1.8 ENE 22 35 12 19 1013.1 - 2.8
21/10:30pm 17.8 16.1 15.8 88 1.2 ENE 19 28 10 15 1013.6 - 2.8
21/10:00pm 18.1 17.2 15.9 87 1.3 NE 15 22 8 12 1014.3 - 2.6
21/09:30pm 18.4 18.5 16.4 88 1.2 E 11 13 6 7 1014.3 - 2.0
21/09:19pm 18.7 19.0 16.1 85 1.6 ENE 9 11 5 6 1014.8 - 1.8
21/09:06pm 18.8 19.0 15.7 82 1.9 NNW 9 11 5 6 1015.2 - 1.2
21/09:00pm 19.3 19.5 15.8 80 2.1 NNW 9 13 5 7 1015.5 1013.8 0.8
21/08:30pm 21.8 21.7 13.4 59 4.9 W 6 11 3 6 1014.7 - 0.0
21/08:19pm 22.9 21.3 11.6 49 6.4 NNE 11 15 6 8 1014.5 - 0.0
21/08:00pm 23.4 20.0 10.5 44 7.2 E 19 26 10 14 1012.5 - 0.0
21/07:30pm 23.3 19.0 10.7 45 7.1 E 24 32 13 17 1011.4 - 0.0
21/07:00pm 23.5 19.6 10.9 45 7.1 E 22 32 12 17 1011.1 - 0.0
21/06:30pm 23.9 20.0 10.9 44 7.4 E 22 30 12 16 1011.1 - 0.0
21/06:00pm 24.0 20.5 11.0 44 7.4 ENE 20 30 11 16 1010.9 1009.2 0.0
21/05:30pm 24.2 19.5 10.8 43 7.6 E 26 33 14 18 1010.6 - 0.0
21/05:00pm 24.7 20.8 10.9 42 7.8 ENE 22 33 12 18 1010.8 - 0.0
21/04:30pm 24.7 20.7 10.6 41 8.0 E 22 33 12 18 1011.3 - 0.0
21/04:00pm 24.9 20.9 10.4 40 8.2 E 22 37 12 20 1012.5 - 0.0
21/03:30pm 24.7 19.9 10.2 40 8.1 E 26 39 14 21 1011.4 - 0.0
21/03:00pm 24.7 19.9 10.2 40 8.2 E 26 35 14 19 1011.4 1009.7 0.0
21/02:30pm 24.7 19.8 9.8 39 8.3 ENE 26 35 14 19 1012.0 - 0.0
21/02:00pm 25.2 20.8 10.3 39 8.4 ENE 24 35 13 19 1012.3 - 0.0
21/01:30pm 24.2 20.6 10.5 42 7.7 E 20 32 11 17 1013.0 - 0.0
21/01:00pm 23.7 19.6 10.0 42 7.6 ENE 22 32 12 17 1013.7 - 0.0
21/12:30pm 22.9 18.9 10.3 45 7.0 E 22 39 12 21 1014.3 - 0.0
21/12:00pm 21.2 16.5 9.4 47 6.4 E 24 33 13 18 1015.2 1013.5 0.0
21/11:30am 21.7 17.6 10.2 48 6.4 E 22 32 12 17 1015.8 - 0.0
21/11:00am 20.3 16.1 9.8 51 5.7 ENE 22 32 12 17 1016.2 - 0.0
21/10:30am 19.1 14.9 9.9 55 5.0 ENE 22 30 12 16 1016.9 - 0.0
21/10:00am 18.3 14.1 9.6 57 4.7 ENE 22 32 12 17 1017.2 - 0.0
21/09:30am 16.9 12.2 9.3 61 4.0 ENE 24 33 13 18 1017.7 - 0.0
21/09:00am 17.1 12.5 9.8 62 3.9 E 24 35 13 19 1017.7 1016.0 0.2
21/08:30am 15.8 11.2 9.7 67 3.2 E 24 33 13 18 1017.6 - 0.2
21/08:00am 15.6 11.1 10.2 70 2.9 E 24 33 13 18 1017.2 - 0.2
21/07:30am 14.4 9.7 9.4 72 2.6 E 24 35 13 19 1017.2 - 0.2
21/07:00am 13.8 10.2 9.8 77 2.1 E 19 28 10 15 1017.1 - 0.2
21/06:30am 13.5 9.6 9.4 76 2.1 E 20 28 11 15 1016.8 - 0.2
21/06:00am 13.5 9.7 9.0 74 2.3 E 19 28 10 15 1017.0 1015.3 0.2
21/05:30am 13.5 9.9 8.4 71 2.6 ESE 17 20 9 11 1016.9 - 0.2
21/05:00am 13.5 9.3 8.1 70 2.7 E 20 26 11 14 1016.6 - 0.2
21/04:30am 13.5 9.4 7.9 69 2.8 E 19 26 10 14 1016.6 - 0.2
21/04:00am 13.7 9.6 7.7 67 3.0 E 19 26 10 14 1016.6 - 0.2
21/03:30am 13.9 9.6 7.7 66 3.1 E 20 24 11 13 1016.6 - 0.2
21/03:00am 13.9 8.9 7.9 67 3.0 E 24 37 13 20 1016.2 1014.5 0.2
21/02:30am 14.0 9.6 7.5 65 3.3 E 20 30 11 16 1016.6 - 0.2
21/02:00am 14.2 9.9 7.7 65 3.3 E 20 28 11 15 1016.6 - 0.2
21/01:30am 14.4 10.6 7.7 64 3.4 ESE 17 28 9 15 1016.6 - 0.2
21/01:00am 14.9 10.6 7.7 62 3.6 E 20 30 11 16 1016.6 - 0.2
21/12:30am 15.3 11.2 7.8 61 3.8 E 19 28 10 15 1016.6 - 0.2
21/12:00am 15.7 11.1 8.0 60 3.9 E 22 33 12 18 1016.7 1015.0 0.2
 
Date/Time
WST
Temp
°C
App
Temp
°C
Dew
Point
°C
Rel
Hum
%
Delta-T
°C
Wind Press
QNH
hPa
Press
MSL
hPa
Rain since
9am
mm
Dir  Spd
km/h
Gust
km/h
Spd
kts
Gust
kts
20/11:30pm 16.0 11.4 8.0 59 4.1 E 22 35 12 19 1016.7 - 0.2
20/11:00pm 16.5 10.7 8.0 57 4.4 E 28 39 15 21 1016.7 - 0.2
20/10:30pm 16.8 11.8 8.2 57 4.5 E 24 37 13 20 1016.8 - 0.2
20/10:00pm 17.1 12.0 7.7 54 4.8 E 24 33 13 18 1016.9 - 0.2
20/09:30pm 17.7 12.9 7.4 51 5.3 E 22 33 12 18 1017.2 - 0.2
20/09:00pm 17.3 14.2 8.7 57 4.5 ESE 15 20 8 11 1017.6 1015.9 0.2
20/08:30pm 17.0 14.8 9.2 60 4.1 SE 11 15 6 8 1017.8 - 0.2
20/08:00pm 17.9 15.1 8.7 55 4.8 SE 13 15 7 8 1017.6 - 0.2
20/07:30pm 18.2 16.3 9.0 55 4.9 SE 9 11 5 6 1017.6 - 0.2
20/07:00pm 19.1 16.3 8.7 51 5.5 SE 13 17 7 9 1017.1 - 0.2
20/06:30pm 19.7 16.4 8.1 47 6.1 ESE 15 20 8 11 1016.8 - 0.2
20/06:00pm 20.6 16.5 7.9 44 6.7 ESE 19 28 10 15 1016.3 1014.6 0.2
20/05:30pm 21.1 16.0 7.7 42 7.1 ESE 24 30 13 16 1016.3 - 0.2
20/05:00pm 22.0 17.8 8.2 41 7.4 ESE 20 30 11 16 1016.5 - 0.2
20/04:30pm 21.8 16.4 8.0 41 7.3 ESE 26 35 14 19 1016.3 - 0.2
20/04:00pm 21.8 17.4 7.6 40 7.5 ESE 20 30 11 16 1016.1 - 0.2
20/03:30pm 22.1 18.0 7.9 40 7.6 ESE 19 32 10 17 1016.6 - 0.2
20/03:00pm 21.7 18.6 7.2 39 7.6 E 13 32 7 17 1016.6 1014.9 0.2
20/02:30pm 22.0 18.0 8.2 41 7.4 SE 19 30 10 16 1017.3 - 0.2
20/02:00pm 21.8 18.0 7.6 40 7.5 E 17 26 9 14 1017.7 - 0.2
20/01:30pm 21.3 18.5 8.6 44 6.8 ESE 13 26 7 14 1017.9 - 0.2
20/01:00pm 20.7 16.7 8.4 45 6.5 ESE 19 30 10 16 1018.5 - 0.2
20/12:30pm 19.8 15.7 7.9 46 6.2 SSE 19 26 10 14 1018.8 - 0.2
20/12:00pm 19.7 16.0 8.1 47 6.1 ESE 17 28 9 15 1019.3 1017.6 0.2
20/11:30am 18.8 14.6 8.2 50 5.6 ESE 20 33 11 18 1019.8 - 0.2
20/11:00am 18.8 14.9 9.3 54 5.1 ESE 20 33 11 18 1020.2 - 0.2
20/10:30am 18.4 14.3 8.7 53 5.1 SE 20 30 11 16 1020.6 - 0.0

Other Formats:

Comma delimited format used in spreadsheet applications
http://www.bom.gov.au/fwo/IDW60801/IDW60801.94637.axf

JavaScript Object Notation format (JSON) in row-major order
http://www.bom.gov.au/fwo/IDW60801/IDW60801.94637.json